Time;durP1;ratioP1;P1;durP2;ratioP2;P2;SDS_P1;SDS_P2;PMS_P1;PMS_P2;Temp;Humidity;BMP_temperature;BMP_pressure;BME280_temperature;BME280_humidity;BME280_pressure;Samples;Min_cycle;Max_cycle;Signal;HPM_P1;HPM_P2
2022/12/10 00:01:12;;;;;;;;;3.33;3.33;;;;;;;;5036950;28;8915;-95
2022/12/10 00:03:37;;;;;;;;;0.00;0.00;;;;;;;;5036175;28;24104;-94
2022/12/10 00:06:03;;;;;;;;;30.00;30.00;;;;;;;;5030601;28;28118;-95
2022/12/10 00:08:28;;;;;;;;;0.00;0.00;;;;;;;;5033943;28;25348;-94
2022/12/10 00:10:53;;;;;;;;;0.67;0.67;;;;;;;;5033494;28;28026;-95
2022/12/10 00:13:19;;;;;;;;;0.00;0.00;;;;;;;;5033800;28;27880;-94
2022/12/10 00:15:44;;;;;;;;;1.00;1.00;;;;;;;;5026919;28;28490;-94
2022/12/10 00:18:09;;;;;;;;;0.00;0.00;;;;;;;;5036592;28;8799;-95
2022/12/10 00:20:35;;;;;;;;;3.33;3.33;;;;;;;;5035830;28;8845;-92
2022/12/10 00:23:00;;;;;;;;;4.00;4.00;;;;;;;;5036268;28;24814;-91
2022/12/10 00:25:26;;;;;;;;;0.00;0.00;;;;;;;;5017015;28;28007;-92
2022/12/10 00:27:51;;;;;;;;;0.00;0.00;;;;;;;;5017517;28;29678;-91
2022/12/10 00:30:16;;;;;;;;;0.00;0.00;;;;;;;;5029697;28;29549;-92
2022/12/10 00:32:41;;;;;;;;;0.00;0.00;;;;;;;;5029461;28;27794;-92
2022/12/10 00:35:07;;;;;;;;;0.00;0.00;;;;;;;;5016192;28;28448;-92
2022/12/10 00:37:32;;;;;;;;;6.00;6.00;;;;;;;;5016841;28;29859;-94
2022/12/10 00:39:57;;;;;;;;;0.00;0.00;;;;;;;;5016740;28;29360;-94
2022/12/10 00:42:23;;;;;;;;;0.00;0.00;;;;;;;;5016975;28;28361;-95
2022/12/10 00:44:48;;;;;;;;;28.00;28.00;;;;;;;;5017495;28;27979;-95
2022/12/10 00:47:13;;;;;;;;;3.00;3.00;;;;;;;;5016819;28;29983;-94
2022/12/10 00:49:38;;;;;;;;;0.00;0.00;;;;;;;;5016866;28;28823;-95
2022/12/10 00:52:03;;;;;;;;;3.00;3.00;;;;;;;;5023928;28;27922;-93
2022/12/10 00:54:29;;;;;;;;;0.00;0.00;;;;;;;;5022730;28;28421;-94
2022/12/10 00:56:54;;;;;;;;;0.00;0.00;;;;;;;;5024219;28;29649;-95
2022/12/10 00:59:19;;;;;;;;;3.00;3.00;;;;;;;;5015952;28;28606;-95
2022/12/10 01:01:44;;;;;;;;;1.00;1.00;;;;;;;;5016160;28;28320;-92
2022/12/10 01:04:14;;;;;;;;;0.00;0.00;;;;;;;;5016620;28;28393;-92
2022/12/10 01:06:41;;;;;;;;;0.00;0.00;;;;;;;;5023012;28;29928;-94
2022/12/10 01:09:08;;;;;;;;;12.00;12.00;;;;;;;;5036100;28;8804;-93
2022/12/10 01:11:36;;;;;;;;;0.00;0.00;;;;;;;;5018766;28;28459;-94
2022/12/10 01:14:02;;;;;;;;;0.00;0.00;;;;;;;;5016404;28;28507;-94
2022/12/10 01:16:27;;;;;;;;;0.00;0.00;;;;;;;;5015639;28;29904;-93
2022/12/10 01:18:56;;;;;;;;;1.00;1.00;;;;;;;;5016303;28;28745;-93
2022/12/10 01:21:22;;;;;;;;;4.00;3.00;;;;;;;;5015410;28;28462;-93
2022/12/10 01:23:49;;;;;;;;;1.00;1.00;;;;;;;;5013122;28;28615;-93
2022/12/10 01:26:15;;;;;;;;;0.00;0.00;;;;;;;;5015769;28;30282;-94
2022/12/10 01:28:41;;;;;;;;;0.00;0.00;;;;;;;;5015865;28;28505;-93
2022/12/10 01:31:08;;;;;;;;;0.00;0.00;;;;;;;;5015435;28;28584;-93
2022/12/10 01:33:34;;;;;;;;;7.00;7.00;;;;;;;;5016015;28;28465;-93
2022/12/10 01:36:06;;;;;;;;;0.00;0.00;;;;;;;;5014730;28;30167;-93
2022/12/10 01:38:31;;;;;;;;;0.00;0.00;;;;;;;;5015618;28;29124;-94
2022/12/10 01:40:57;;;;;;;;;0.00;0.00;;;;;;;;5012225;28;29091;-93
2022/12/10 01:43:22;;;;;;;;;0.00;0.00;;;;;;;;5012541;28;28418;-93
2022/12/10 01:45:47;;;;;;;;;0.00;0.00;;;;;;;;5012000;28;29663;-93
2022/12/10 01:48:13;;;;;;;;;0.00;0.00;;;;;;;;5014249;28;28758;-92
2022/12/10 01:50:38;;;;;;;;;0.00;0.00;;;;;;;;5012012;28;28527;-93
2022/12/10 01:53:04;;;;;;;;;0.00;0.00;;;;;;;;5023667;28;27865;-93
2022/12/10 01:55:39;;;;;;;;;0.00;0.00;;;;;;;;5038712;28;8841;-92
2022/12/10 01:58:04;;;;;;;;;0.00;0.00;;;;;;;;5033204;28;8814;-93
2022/12/10 02:00:31;;;;;;;;;0.00;0.00;;;;;;;;5033879;28;24187;-93
2022/12/10 02:03:04;;;;;;;;;0.00;0.00;;;;;;;;5016834;28;28402;-93
2022/12/10 02:05:40;;;;;;;;;0.00;0.00;;;;;;;;5016489;28;31038;-92
2022/12/10 02:08:25;;;;;;;;;0.00;0.00;;;;;;;;5031527;28;28911;-93
2022/12/10 02:10:51;;;;;;;;;0.00;0.00;;;;;;;;5035224;28;8829;-94
2022/12/10 02:13:35;;;;;;;;;0.00;0.00;;;;;;;;5019167;28;8822;-93
2022/12/10 02:16:11;;;;;;;;;0.00;0.00;;;;;;;;5015042;28;12252;-92
2022/12/10 02:18:39;;;;;;;;;4.00;4.00;;;;;;;;5014690;28;18196;-94
2022/12/10 02:21:11;;;;;;;;;0.00;0.00;;;;;;;;5011621;28;24174;-93
2022/12/10 02:23:39;;;;;;;;;0.00;0.00;;;;;;;;5003435;28;27862;-93
2022/12/10 02:26:07;;;;;;;;;0.00;0.00;;;;;;;;5011038;28;24840;-93
2022/12/10 02:28:32;;;;;;;;;0.00;0.00;;;;;;;;4998419;28;28834;-93
2022/12/10 02:30:58;;;;;;;;;0.00;0.00;;;;;;;;5017647;28;28489;-93
2022/12/10 02:33:25;;;;;;;;;0.00;0.00;;;;;;;;5018153;28;27972;-93
2022/12/10 02:35:51;;;;;;;;;0.00;0.00;;;;;;;;5033081;28;29667;-93
2022/12/10 02:38:25;;;;;;;;;0.00;0.00;;;;;;;;5033198;28;27647;-93
2022/12/10 02:40:53;;;;;;;;;2.00;2.00;;;;;;;;5015538;28;28373;-94
2022/12/10 02:43:21;;;;;;;;;0.00;0.00;;;;;;;;5028626;28;28118;-93
2022/12/10 02:45:46;;;;;;;;;0.00;0.00;;;;;;;;5032208;28;9011;-93
2022/12/10 02:48:12;;;;;;;;;0.00;0.00;;;;;;;;5036035;28;8922;-92
2022/12/10 02:50:37;;;;;;;;;0.00;0.00;;;;;;;;5034065;28;24047;-93
2022/12/10 02:53:03;;;;;;;;;0.00;0.00;;;;;;;;5016273;28;28616;-92
2022/12/10 02:55:34;;;;;;;;;0.00;0.00;;;;;;;;5015564;28;29994;-92
2022/12/10 02:58:21;;;;;;;;;1.00;1.00;;;;;;;;5015270;28;28819;-93
2022/12/10 03:00:53;;;;;;;;;9.00;9.00;;;;;;;;5019460;28;28515;-93
2022/12/10 03:03:18;;;;;;;;;0.00;0.00;;;;;;;;4998131;28;28958;-93
2022/12/10 03:05:46;;;;;;;;;0.00;0.00;;;;;;;;4993991;28;29783;-92
2022/12/10 03:08:23;;;;;;;;;0.00;0.00;;;;;;;;4994989;28;29881;-92
2022/12/10 03:10:49;;;;;;;;;0.00;0.00;;;;;;;;4994521;28;28630;-93
2022/12/10 03:13:15;;;;;;;;;0.00;0.00;;;;;;;;4994518;28;28395;-94
2022/12/10 03:15:42;;;;;;;;;0.00;0.00;;;;;;;;4994178;28;31455;-93
2022/12/10 03:18:08;;;;;;;;;0.00;0.00;;;;;;;;5013084;28;28855;-93
2022/12/10 03:20:35;;;;;;;;;1.00;1.00;;;;;;;;5013234;28;28494;-94
2022/12/10 03:23:01;;;;;;;;;0.00;0.00;;;;;;;;5014532;28;28504;-92
2022/12/10 03:25:28;;;;;;;;;0.00;0.00;;;;;;;;5013901;28;29968;-93
2022/12/10 03:27:54;;;;;;;;;0.67;0.67;;;;;;;;5014103;28;28607;-93
2022/12/10 03:30:19;;;;;;;;;0.00;0.00;;;;;;;;4999031;28;28536;-94
2022/12/10 03:32:45;;;;;;;;;0.00;0.00;;;;;;;;4994933;28;28613;-93
2022/12/10 03:35:11;;;;;;;;;0.00;0.00;;;;;;;;4994226;28;30193;-93
2022/12/10 03:37:37;;;;;;;;;0.00;0.00;;;;;;;;4994708;28;28859;-93
2022/12/10 03:40:03;;;;;;;;;0.00;0.00;;;;;;;;4994146;28;28046;-93
2022/12/10 03:42:28;;;;;;;;;0.00;0.00;;;;;;;;4994846;28;29026;-93
2022/12/10 03:44:53;;;;;;;;;1.00;1.00;;;;;;;;5025791;28;28456;-93
2022/12/10 03:47:19;;;;;;;;;0.00;0.00;;;;;;;;5010806;28;29065;-94
2022/12/10 03:49:44;;;;;;;;;0.00;0.00;;;;;;;;4994358;28;28571;-93
2022/12/10 03:52:10;;;;;;;;;0.00;0.00;;;;;;;;4995375;28;28408;-93
2022/12/10 03:54:35;;;;;;;;;0.00;0.00;;;;;;;;4995883;28;31192;-94
2022/12/10 03:57:00;;;;;;;;;0.00;0.00;;;;;;;;4999894;28;28447;-92
2022/12/10 03:59:25;;;;;;;;;0.00;0.00;;;;;;;;5003433;28;28631;-94
2022/12/10 04:01:51;;;;;;;;;0.00;0.00;;;;;;;;5013363;28;27916;-94
2022/12/10 04:04:16;;;;;;;;;0.00;0.00;;;;;;;;5010433;28;31058;-93
2022/12/10 04:06:42;;;;;;;;;0.33;0.33;;;;;;;;5012985;28;28540;-93
2022/12/10 04:09:09;;;;;;;;;0.00;0.00;;;;;;;;5015761;28;27828;-94
2022/12/10 04:11:34;;;;;;;;;0.00;0.00;;;;;;;;5017200;28;28498;-93
2022/12/10 04:16:44;;;;;;;;;0.00;0.00;;;;;;;;5014660;28;27760;-92
2022/12/10 04:19:10;;;;;;;;;0.00;0.00;;;;;;;;5006077;28;27761;-93
2022/12/10 04:27:09;;;;;;;;;6.00;6.00;;;;;;;;5015007;28;28579;-93
2022/12/10 04:29:34;;;;;;;;;0.00;0.00;;;;;;;;5014571;28;28547;-93
2022/12/10 04:31:59;;;;;;;;;0.00;0.00;;;;;;;;5017193;28;28856;-93
2022/12/10 04:34:25;;;;;;;;;0.00;0.00;;;;;;;;5016958;28;29857;-92
2022/12/10 04:36:50;;;;;;;;;0.00;0.00;;;;;;;;5016148;28;28912;-92
2022/12/10 04:39:16;;;;;;;;;0.00;0.00;;;;;;;;5016562;28;28548;-93
2022/12/10 04:41:42;;;;;;;;;0.00;0.00;;;;;;;;5016532;28;28571;-93
2022/12/10 04:44:07;;;;;;;;;0.00;0.00;;;;;;;;5016495;28;29730;-93
2022/12/10 04:46:33;;;;;;;;;0.00;0.00;;;;;;;;5016167;28;29703;-92
2022/12/10 04:48:58;;;;;;;;;0.00;0.00;;;;;;;;5016964;28;28302;-93
2022/12/10 04:51:23;;;;;;;;;0.00;0.00;;;;;;;;5000925;28;28611;-93
2022/12/10 04:53:48;;;;;;;;;0.00;0.00;;;;;;;;4997908;28;29953;-93
2022/12/10 04:56:13;;;;;;;;;0.00;0.00;;;;;;;;5007553;28;29494;-93
2022/12/10 04:58:39;;;;;;;;;1.00;1.00;;;;;;;;5018973;28;24861;-92
2022/12/10 05:01:05;;;;;;;;;0.00;0.00;;;;;;;;5019385;28;27850;-93
2022/12/10 05:03:30;;;;;;;;;0.00;0.00;;;;;;;;5023725;28;8828;-92
2022/12/10 05:05:55;;;;;;;;;0.00;0.00;;;;;;;;5031003;28;8803;-90
2022/12/10 05:08:21;;;;;;;;;0.00;0.00;;;;;;;;5038056;28;8828;-93
2022/12/10 05:10:46;;;;;;;;;0.00;0.00;;;;;;;;5035834;28;26468;-93
2022/12/10 05:13:11;;;;;;;;;0.00;0.00;;;;;;;;5026166;28;29662;-94
2022/12/10 05:15:39;;;;;;;;;0.00;0.00;;;;;;;;5037134;28;8810;-93
2022/12/10 05:18:04;;;;;;;;;1.67;1.67;;;;;;;;5038066;28;8771;-92
2022/12/10 05:20:30;;;;;;;;;0.00;0.00;;;;;;;;5024339;28;24943;-94
2022/12/10 05:25:54;;;;;;;;;0.00;0.00;;;;;;;;5015176;28;28525;-92
2022/12/10 05:28:20;;;;;;;;;0.00;0.00;;;;;;;;5016613;28;28429;-93
2022/12/10 05:30:46;;;;;;;;;1.33;1.33;;;;;;;;5023548;28;28290;-93
2022/12/10 05:33:11;;;;;;;;;1.00;1.00;;;;;;;;5025202;28;30144;-93
2022/12/10 05:35:36;;;;;;;;;0.00;0.00;;;;;;;;5018893;28;29734;-93
2022/12/10 05:38:01;;;;;;;;;0.00;0.00;;;;;;;;5018160;28;28628;-94
2022/12/10 05:40:27;;;;;;;;;0.00;0.00;;;;;;;;5011068;28;28268;-94
2022/12/10 05:42:52;;;;;;;;;0.00;0.00;;;;;;;;5008438;28;29653;-94
2022/12/10 05:45:17;;;;;;;;;1.00;1.00;;;;;;;;5017088;28;8822;-94
2022/12/10 05:47:42;;;;;;;;;0.00;0.00;;;;;;;;5017811;28;8810;-95
2022/12/10 05:50:07;;;;;;;;;0.00;0.00;;;;;;;;5016325;28;25677;-93
2022/12/10 05:52:33;;;;;;;;;0.00;0.00;;;;;;;;5000420;28;30869;-94
2022/12/10 05:54:58;;;;;;;;;0.33;0.33;;;;;;;;5011980;28;28643;-94
2022/12/10 05:57:23;;;;;;;;;0.00;0.00;;;;;;;;5018326;28;8789;-94
2022/12/10 05:59:48;;;;;;;;;0.00;0.00;;;;;;;;5022979;28;8838;-94
2022/12/10 06:02:13;;;;;;;;;0.00;0.00;;;;;;;;5032774;28;28709;-94
2022/12/10 06:04:39;;;;;;;;;0.00;0.00;;;;;;;;5020333;28;28452;-92
2022/12/10 06:07:04;;;;;;;;;0.00;0.00;;;;;;;;5021189;28;28503;-93
2022/12/10 06:09:29;;;;;;;;;0.00;0.00;;;;;;;;5022768;28;28487;-93
2022/12/10 06:11:54;;;;;;;;;0.00;0.00;;;;;;;;5018324;28;30155;-93
2022/12/10 06:14:20;;;;;;;;;0.00;0.00;;;;;;;;5017292;28;28522;-94
2022/12/10 06:16:45;;;;;;;;;0.00;0.00;;;;;;;;5008000;28;27794;-94
2022/12/10 06:19:10;;;;;;;;;0.00;0.00;;;;;;;;4996671;28;28432;-94
2022/12/10 06:21:35;;;;;;;;;0.00;0.00;;;;;;;;4994472;28;29968;-93
2022/12/10 06:24:00;;;;;;;;;0.00;0.00;;;;;;;;4995762;28;28417;-93
2022/12/10 06:26:26;;;;;;;;;0.00;0.00;;;;;;;;4995159;28;28475;-95
2022/12/10 06:28:51;;;;;;;;;0.00;0.00;;;;;;;;4995830;28;28667;-93
2022/12/10 06:31:17;;;;;;;;;0.00;0.00;;;;;;;;4994935;28;31025;-95
2022/12/10 06:33:42;;;;;;;;;0.00;0.00;;;;;;;;4995461;28;28727;-94
2022/12/10 06:36:09;;;;;;;;;0.00;0.00;;;;;;;;4994411;28;28584;-94
2022/12/10 06:38:34;;;;;;;;;0.00;0.00;;;;;;;;4995076;28;28628;-94
2022/12/10 06:41:00;;;;;;;;;0.00;0.00;;;;;;;;4994616;28;29670;-93
2022/12/10 06:43:28;;;;;;;;;0.00;0.00;;;;;;;;4995211;28;28664;-93
2022/12/10 06:45:53;;;;;;;;;0.00;0.00;;;;;;;;4994440;28;28541;-93
2022/12/10 06:48:18;;;;;;;;;37.50;32.00;;;;;;;;4995425;28;28464;-94
2022/12/10 06:50:43;;;;;;;;;0.00;0.00;;;;;;;;4993947;28;30003;-93
2022/12/10 06:53:09;;;;;;;;;0.00;0.00;;;;;;;;5001372;28;28632;-94
2022/12/10 06:55:35;;;;;;;;;0.00;0.00;;;;;;;;5014977;28;28584;-92
2022/12/10 06:58:00;;;;;;;;;0.00;0.00;;;;;;;;5014910;28;28468;-94
2022/12/10 07:00:26;;;;;;;;;0.00;0.00;;;;;;;;5000459;28;29629;-93
2022/12/10 07:02:51;;;;;;;;;0.00;0.00;;;;;;;;4995669;28;29746;-94
2022/12/10 07:05:16;;;;;;;;;0.00;0.00;;;;;;;;4994483;28;28558;-93
2022/12/10 07:07:42;;;;;;;;;0.00;0.00;;;;;;;;4997930;28;28492;-93
2022/12/10 07:10:08;;;;;;;;;0.00;0.00;;;;;;;;4999890;28;29732;-94
2022/12/10 07:12:33;;;;;;;;;0.00;0.00;;;;;;;;5000941;28;29443;-93
2022/12/10 07:14:58;;;;;;;;;0.00;0.00;;;;;;;;5013964;28;28608;-89
2022/12/10 07:17:23;;;;;;;;;0.00;0.00;;;;;;;;5012820;28;28404;-89
2022/12/10 07:19:49;;;;;;;;;0.00;0.00;;;;;;;;5041829;28;28420;-88
2022/12/10 07:22:14;;;;;;;;;0.00;0.00;;;;;;;;5009739;28;28424;-89
2022/12/10 07:24:39;;;;;;;;;0.00;0.00;;;;;;;;5000773;28;28614;-89
2022/12/10 07:27:05;;;;;;;;;0.00;0.00;;;;;;;;5009743;28;28493;-89
2022/12/10 07:29:30;;;;;;;;;0.00;0.00;;;;;;;;5012388;28;28571;-90
2022/12/10 07:31:55;;;;;;;;;0.00;0.00;;;;;;;;5028504;28;28947;-89
2022/12/10 07:34:20;;;;;;;;;0.00;0.00;;;;;;;;5014839;28;28526;-88
2022/12/10 07:36:46;;;;;;;;;0.00;0.00;;;;;;;;5031827;28;28464;-90
2022/12/10 07:39:16;;;;;;;;;0.00;0.00;;;;;;;;5029066;28;29664;-90
2022/12/10 07:41:42;;;;;;;;;0.00;0.00;;;;;;;;5028420;28;29758;-90
2022/12/10 07:44:09;;;;;;;;;0.00;0.00;;;;;;;;5030845;28;28478;-90
2022/12/10 07:46:34;;;;;;;;;0.00;0.00;;;;;;;;5031377;28;28508;-90
2022/12/10 07:49:01;;;;;;;;;0.00;0.00;;;;;;;;5032117;28;30688;-89
2022/12/10 07:51:26;;;;;;;;;0.00;0.00;;;;;;;;5022193;28;28789;-90
2022/12/10 07:53:53;;;;;;;;;0.00;0.00;;;;;;;;5024855;28;28428;-88
2022/12/10 07:56:18;;;;;;;;;0.00;0.00;;;;;;;;5032286;28;28498;-89
2022/12/10 07:58:44;;;;;;;;;0.00;0.00;;;;;;;;5033217;28;28818;-91
2022/12/10 08:01:11;;;;;;;;;0.00;0.00;;;;;;;;4995479;28;28665;-89
2022/12/10 08:03:36;;;;;;;;;3.00;3.00;;;;;;;;4996482;28;28517;-90
2022/12/10 08:06:02;;;;;;;;;0.00;0.00;;;;;;;;5014420;28;28532;-92
2022/12/10 08:08:27;;;;;;;;;0.00;0.00;;;;;;;;5015841;28;28765;-90
2022/12/10 08:10:54;;;;;;;;;0.00;0.00;;;;;;;;4997598;28;28698;-93
2022/12/10 08:13:19;;;;;;;;;0.00;0.00;;;;;;;;4999561;28;28766;-88
2022/12/10 08:15:44;;;;;;;;;0.00;0.00;;;;;;;;5030322;28;28672;-90
2022/12/10 08:18:09;;;;;;;;;0.00;0.00;;;;;;;;5015674;28;29709;-93
2022/12/10 08:20:35;;;;;;;;;0.00;0.00;;;;;;;;5030913;28;28449;-90
2022/12/10 08:23:00;;;;;;;;;0.00;0.00;;;;;;;;5010236;28;28472;-90
2022/12/10 08:25:25;;;;;;;;;0.00;0.00;;;;;;;;5011649;28;28428;-90
2022/12/10 08:27:51;;;;;;;;;0.00;0.00;;;;;;;;5007853;28;31480;-90
2022/12/10 08:30:16;;;;;;;;;0.00;0.00;;;;;;;;5023026;28;28511;-90
2022/12/10 08:32:41;;;;;;;;;0.00;0.00;;;;;;;;5004962;28;28369;-90
2022/12/10 08:35:06;;;;;;;;;0.00;0.00;;;;;;;;5031066;28;28699;-90
2022/12/10 08:37:32;;;;;;;;;0.00;0.00;;;;;;;;5006702;28;29924;-92
2022/12/10 08:39:57;;;;;;;;;0.00;0.00;;;;;;;;5009714;28;28485;-89
2022/12/10 08:42:22;;;;;;;;;0.00;0.00;;;;;;;;5009733;28;28524;-90
2022/12/10 08:44:47;;;;;;;;;0.00;0.00;;;;;;;;5009609;28;28345;-90
2022/12/10 08:47:12;;;;;;;;;0.00;0.00;;;;;;;;5008206;28;29729;-90
2022/12/10 08:49:37;;;;;;;;;4.33;4.33;;;;;;;;5028856;28;28450;-89
2022/12/10 08:52:03;;;;;;;;;0.00;0.00;;;;;;;;5014908;28;28575;-90
2022/12/10 08:54:28;;;;;;;;;0.00;0.00;;;;;;;;5014337;28;28439;-92
2022/12/10 08:56:53;;;;;;;;;4.67;4.67;;;;;;;;5014538;28;29770;-90
2022/12/10 08:59:18;;;;;;;;;0.00;0.00;;;;;;;;5015380;28;28611;-91
2022/12/10 09:01:44;;;;;;;;;4.00;4.00;;;;;;;;5006289;28;27957;-92
2022/12/10 09:04:09;;;;;;;;;0.00;0.00;;;;;;;;5016731;28;28458;-91
2022/12/10 09:06:34;;;;;;;;;0.00;0.00;;;;;;;;5016493;28;29816;-91
2022/12/10 09:08:59;;;;;;;;;0.00;0.00;;;;;;;;5016708;28;28786;-91
2022/12/10 09:11:29;;;;;;;;;0.00;0.00;;;;;;;;5016448;28;28514;-89
2022/12/10 09:13:55;;;;;;;;;0.00;0.00;;;;;;;;5017983;28;28412;-91
2022/12/10 09:16:20;;;;;;;;;0.00;0.00;;;;;;;;5014964;28;30001;-90
2022/12/10 09:18:45;;;;;;;;;0.00;0.00;;;;;;;;5028866;28;28509;-91
2022/12/10 09:21:12;;;;;;;;;0.00;0.00;;;;;;;;5020079;28;28541;-91
2022/12/10 09:23:38;;;;;;;;;0.00;0.00;;;;;;;;5017474;28;27796;-91
2022/12/10 09:26:07;;;;;;;;;0.00;0.00;;;;;;;;5028358;28;28699;-89
2022/12/10 09:28:32;;;;;;;;;0.00;0.00;;;;;;;;5019243;28;28550;-89
2022/12/10 09:30:58;;;;;;;;;0.00;0.00;;;;;;;;5009566;28;28583;-90
2022/12/10 09:33:24;;;;;;;;;0.00;0.00;;;;;;;;5028161;28;28792;-91
2022/12/10 09:35:49;;;;;;;;;0.00;0.00;;;;;;;;5004148;28;29651;-90
2022/12/10 09:38:14;;;;;;;;;0.00;0.00;;;;;;;;5018916;28;28985;-91
2022/12/10 09:41:00;;;;;;;;;0.00;0.00;;;;;;;;5039142;28;8834;-89
2022/12/10 09:43:26;;;;;;;;;0.00;0.00;;;;;;;;5025165;28;8817;-90
2022/12/10 09:45:56;;;;;;;;;0.00;0.00;;;;;;;;5050001;28;27884;-91
2022/12/10 09:48:27;;;;;;;;;0.00;0.00;;;;;;;;5043973;28;26958;-92
2022/12/10 09:51:08;;;;;;;;;0.00;0.00;;;;;;;;5018844;28;8837;-90
2022/12/10 09:53:35;;;;;;;;;0.00;0.00;;;;;;;;5039592;28;9729;-92
2022/12/10 09:56:02;;;;;;;;;0.00;0.00;;;;;;;;5051892;28;27818;-90
2022/12/10 09:58:27;;;;;;;;;0.00;0.00;;;;;;;;5006600;28;28718;-91
2022/12/10 10:01:00;;;;;;;;;0.00;0.00;;;;;;;;5014390;28;27924;-91
2022/12/10 10:03:25;;;;;;;;;0.00;0.00;;;;;;;;5014459;28;28518;-91
2022/12/10 10:05:52;;;;;;;;;0.00;0.00;;;;;;;;5020447;28;28444;-90
2022/12/10 10:08:31;;;;;;;;;0.00;0.00;;;;;;;;5018598;28;28533;-91
2022/12/10 10:10:57;;;;;;;;;0.00;0.00;;;;;;;;5032525;28;28511;-90
2022/12/10 10:13:33;;;;;;;;;0.00;0.00;;;;;;;;5040183;28;28272;-90
2022/12/10 10:16:17;;;;;;;;;0.00;0.00;;;;;;;;5018983;28;27924;-90
2022/12/10 10:18:48;;;;;;;;;0.00;0.00;;;;;;;;5025145;28;8804;-91
2022/12/10 10:21:21;;;;;;;;;0.00;0.00;;;;;;;;5028695;28;8792;-90
2022/12/10 10:23:47;;;;;;;;;0.00;0.00;;;;;;;;5030196;28;25581;-90
2022/12/10 10:26:12;;;;;;;;;6.00;6.00;;;;;;;;5014796;28;30882;-90
2022/12/10 10:28:38;;;;;;;;;0.00;0.00;;;;;;;;5048389;28;22711;-89
2022/12/10 10:31:09;;;;;;;;;0.00;0.00;;;;;;;;5024768;28;8815;-90
2022/12/10 10:33:47;;;;;;;;;0.00;0.00;;;;;;;;5025423;28;8973;-92
2022/12/10 10:36:12;;;;;;;;;0.00;0.00;;;;;;;;5016476;28;28515;-89
2022/12/10 10:38:38;;;;;;;;;0.00;0.00;;;;;;;;5027124;28;28589;-95
2022/12/10 10:41:04;;;;;;;;;0.67;0.67;;;;;;;;5005983;28;28628;-91
2022/12/10 10:43:44;;;;;;;;;0.00;0.00;;;;;;;;5012612;28;28574;-91
2022/12/10 10:46:15;;;;;;;;;1.00;1.00;;;;;;;;5024017;28;30594;-91
2022/12/10 10:48:40;;;;;;;;;0.00;0.00;;;;;;;;5010827;28;28684;-89
2022/12/10 10:51:05;;;;;;;;;0.00;0.00;;;;;;;;5007708;28;28437;-89
2022/12/10 10:53:32;;;;;;;;;1.00;1.00;;;;;;;;5003045;28;28517;-89
2022/12/10 10:55:59;;;;;;;;;0.00;0.00;;;;;;;;5024828;28;29970;-90
2022/12/10 10:58:25;;;;;;;;;0.00;0.00;;;;;;;;5040940;28;8796;-91
2022/12/10 11:00:55;;;;;;;;;0.00;0.00;;;;;;;;5030528;28;8844;-87
2022/12/10 11:03:20;;;;;;;;;0.00;0.00;;;;;;;;5042656;28;25017;-91
2022/12/10 11:05:47;;;;;;;;;0.00;0.00;;;;;;;;5004250;28;29673;-90
2022/12/10 11:08:17;;;;;;;;;8.00;6.67;;;;;;;;5027821;28;28519;-89
2022/12/10 11:10:50;;;;;;;;;0.00;0.00;;;;;;;;5009022;28;28457;-94
2022/12/10 11:13:19;;;;;;;;;0.00;0.00;;;;;;;;5023253;28;28562;-91
2022/12/10 11:15:44;;;;;;;;;0.00;0.00;;;;;;;;5003798;28;30046;-92
2022/12/10 11:18:39;;;;;;;;;0.00;0.00;;;;;;;;4999584;28;28564;-87
2022/12/10 11:21:13;;;;;;;;;0.00;0.00;;;;;;;;4997386;28;28518;-88
2022/12/10 11:23:39;;;;;;;;;0.00;0.00;;;;;;;;5002068;28;28557;-89
2022/12/10 11:26:07;;;;;;;;;0.00;0.00;;;;;;;;5024670;28;28565;-91
2022/12/10 11:28:48;;;;;;;;;6.00;6.00;;;;;;;;4999825;28;28757;-91
2022/12/10 11:31:23;;;;;;;;;0.00;0.00;;;;;;;;5016824;28;29131;-89
2022/12/10 11:34:07;;;;;;;;;0.00;0.00;;;;;;;;5022897;28;28542;-89
2022/12/10 11:36:35;;;;;;;;;0.00;0.00;;;;;;;;5026457;28;29584;-88
2022/12/10 11:39:06;;;;;;;;;0.00;0.00;;;;;;;;5020615;28;28491;-89
2022/12/10 11:41:41;;;;;;;;;0.00;0.00;;;;;;;;5020759;28;28633;-89
2022/12/10 11:44:06;;;;;;;;;0.00;0.00;;;;;;;;5016222;28;28529;-90
2022/12/10 11:46:35;;;;;;;;;0.00;0.00;;;;;;;;5003912;28;31397;-94
2022/12/10 11:49:17;;;;;;;;;0.00;0.00;;;;;;;;5000403;28;28778;-88
2022/12/10 11:51:51;;;;;;;;;0.00;0.00;;;;;;;;5009344;28;28882;-90
2022/12/10 11:54:22;;;;;;;;;0.00;0.00;;;;;;;;5010187;28;28623;-90
2022/12/10 11:56:52;;;;;;;;;0.00;0.00;;;;;;;;4995652;28;30056;-90
2022/12/10 11:59:17;;;;;;;;;0.00;0.00;;;;;;;;5001619;28;29265;-91
2022/12/10 12:01:51;;;;;;;;;0.00;0.00;;;;;;;;5004291;28;28535;-90
2022/12/10 12:04:24;;;;;;;;;0.00;0.00;;;;;;;;5009354;28;28313;-91
2022/12/10 12:06:53;;;;;;;;;0.00;0.00;;;;;;;;4993243;28;29931;-90
2022/12/10 12:09:33;;;;;;;;;0.00;0.00;;;;;;;;4991865;28;29965;-89
2022/12/10 12:11:58;;;;;;;;;0.00;0.00;;;;;;;;5009783;28;28503;-89
2022/12/10 12:14:28;;;;;;;;;0.00;0.00;;;;;;;;5010460;28;28456;-93
2022/12/10 12:16:56;;;;;;;;;0.00;0.00;;;;;;;;4980962;28;30001;-89
2022/12/10 12:19:48;;;;;;;;;0.00;0.00;;;;;;;;4991410;28;29006;-88
2022/12/10 12:22:39;;;;;;;;;0.00;0.00;;;;;;;;4998270;28;28549;-89
2022/12/10 12:25:07;;;;;;;;;0.00;0.00;;;;;;;;4987286;28;28635;-92
2022/12/10 12:27:36;;;;;;;;;0.00;0.00;;;;;;;;5011248;28;30277;-89
2022/12/10 12:30:04;;;;;;;;;0.00;0.00;;;;;;;;4984396;28;30010;-94
2022/12/10 12:32:49;;;;;;;;;0.00;0.00;;;;;;;;4993944;28;28702;-92
2022/12/10 12:35:27;;;;;;;;;0.00;0.00;;;;;;;;4985763;28;28725;-89
2022/12/10 12:38:00;;;;;;;;;0.00;0.00;;;;;;;;5011173;28;28456;-91
2022/12/10 12:40:26;;;;;;;;;0.00;0.00;;;;;;;;5016279;28;28502;-92
2022/12/10 12:42:55;;;;;;;;;0.00;0.00;;;;;;;;4987129;28;28542;-89
2022/12/10 12:45:40;;;;;;;;;0.00;0.00;;;;;;;;5009712;28;28638;-88
2022/12/10 12:48:11;;;;;;;;;0.00;0.00;;;;;;;;5020744;28;29657;-89
2022/12/10 12:50:43;;;;;;;;;0.00;0.00;;;;;;;;5016175;28;28860;-89
2022/12/10 12:53:11;;;;;;;;;0.00;0.00;;;;;;;;5020284;28;28581;-90
2022/12/10 12:55:39;;;;;;;;;0.00;0.00;;;;;;;;5028695;28;29465;-89
2022/12/10 12:58:17;;;;;;;;;0.00;0.00;;;;;;;;5016321;28;30815;-88
2022/12/10 13:00:46;;;;;;;;;0.00;0.00;;;;;;;;5013389;28;27937;-89
2022/12/10 13:03:20;;;;;;;;;0.00;0.00;;;;;;;;5022297;28;28541;-88
2022/12/10 13:05:46;;;;;;;;;0.00;0.00;;;;;;;;5012510;28;28740;-88
2022/12/10 13:08:15;;;;;;;;;0.00;0.00;;;;;;;;5008316;28;30021;-89
2022/12/10 13:10:45;;;;;;;;;0.00;0.00;;;;;;;;5011554;28;29865;-89
2022/12/10 13:13:23;;;;;;;;;0.00;0.00;;;;;;;;5013645;28;28519;-89
2022/12/10 13:15:48;;;;;;;;;0.00;0.00;;;;;;;;5015021;28;28487;-88
2022/12/10 13:18:13;;;;;;;;;1.00;1.00;;;;;;;;5013820;28;30223;-89
2022/12/10 13:20:38;;;;;;;;;0.00;0.00;;;;;;;;5013205;28;29698;-89
2022/12/10 13:23:24;;;;;;;;;0.00;0.00;;;;;;;;5030962;28;28458;-89
2022/12/10 13:25:49;;;;;;;;;0.00;0.00;;;;;;;;5009755;28;28610;-89
2022/12/10 13:28:17;;;;;;;;;0.00;0.00;;;;;;;;5006843;28;29704;-89
2022/12/10 13:30:42;;;;;;;;;0.00;0.00;;;;;;;;5013206;28;28459;-89
2022/12/10 13:33:15;;;;;;;;;0.00;0.00;;;;;;;;5010464;28;28365;-89
2022/12/10 13:35:49;;;;;;;;;0.00;0.00;;;;;;;;5020652;28;28782;-89
2022/12/10 13:38:20;;;;;;;;;0.00;0.00;;;;;;;;5009540;28;29958;-89
2022/12/10 13:46:31;;;;;;;;;0.00;0.00;;;;;;;;5025673;28;28589;-88
2022/12/10 13:48:58;;;;;;;;;0.00;0.00;;;;;;;;5005678;28;30034;-89
2022/12/10 13:51:42;;;;;;;;;0.00;0.00;;;;;;;;5008242;28;29423;-89
2022/12/10 13:54:31;;;;;;;;;0.00;0.00;;;;;;;;5027198;28;28605;-89
2022/12/10 13:57:15;;;;;;;;;0.00;0.00;;;;;;;;5007368;28;28003;-89
2022/12/10 13:59:46;;;;;;;;;0.00;0.00;;;;;;;;5026351;28;28546;-89
2022/12/10 14:02:17;;;;;;;;;0.00;0.00;;;;;;;;5017191;28;28770;-89
2022/12/10 14:05:06;;;;;;;;;0.33;0.33;;;;;;;;5005602;28;28815;-88
2022/12/10 14:07:31;;;;;;;;;7.00;7.00;;;;;;;;5016226;28;28601;-89
2022/12/10 14:09:58;;;;;;;;;0.00;0.00;;;;;;;;5022442;28;28491;-88
2022/12/10 14:12:29;;;;;;;;;0.00;0.00;;;;;;;;5011070;28;28517;-89
2022/12/10 14:15:05;;;;;;;;;0.00;0.00;;;;;;;;5029911;28;28622;-90
2022/12/10 14:17:32;;;;;;;;;0.00;0.00;;;;;;;;5011766;28;28539;-90
2022/12/10 14:19:57;;;;;;;;;0.00;0.00;;;;;;;;5020098;28;28553;-90
2022/12/10 14:22:25;;;;;;;;;0.00;0.00;;;;;;;;5010985;28;28709;-90
2022/12/10 14:24:50;;;;;;;;;0.00;0.00;;;;;;;;5031231;28;28538;-89
2022/12/10 14:27:23;;;;;;;;;0.00;0.00;;;;;;;;5005315;28;28514;-89
2022/12/10 14:29:51;;;;;;;;;0.00;0.00;;;;;;;;5005413;28;29913;-89
2022/12/10 14:32:25;;;;;;;;;0.00;0.00;;;;;;;;5018370;28;28774;-89
2022/12/10 14:34:52;;;;;;;;;0.00;0.00;;;;;;;;5006707;28;29622;-90
2022/12/10 14:37:19;;;;;;;;;0.00;0.00;;;;;;;;5011260;28;28604;-96
2022/12/10 14:39:44;;;;;;;;;0.00;0.00;;;;;;;;5006067;28;28764;-89
2022/12/10 14:42:12;;;;;;;;;0.00;0.00;;;;;;;;5009596;28;28533;-93
2022/12/10 14:44:38;;;;;;;;;0.00;0.00;;;;;;;;5022494;28;28527;-89
2022/12/10 14:47:05;;;;;;;;;0.00;0.00;;;;;;;;5008533;28;28523;-90
2022/12/10 14:49:30;;;;;;;;;0.00;0.00;;;;;;;;5027301;28;28482;-90
2022/12/10 14:51:55;;;;;;;;;0.00;0.00;;;;;;;;5030887;28;27861;-91
2022/12/10 14:54:23;;;;;;;;;0.00;0.00;;;;;;;;5024092;28;28557;-90
2022/12/10 14:56:49;;;;;;;;;0.00;0.00;;;;;;;;5000451;28;28608;-91
2022/12/10 14:59:18;;;;;;;;;0.00;0.00;;;;;;;;5007153;28;29816;-91
2022/12/10 15:01:46;;;;;;;;;0.00;0.00;;;;;;;;4998892;28;29151;-89
2022/12/10 15:04:15;;;;;;;;;0.00;0.00;;;;;;;;5009254;28;28495;-89